Weather at Ailinglaplap Airok Airport

Public forecast

Using degrees Celsius for public forecast. Weather courtesy of forecast.io.

Closest aviation weather report (METAR) to Ailinglaplap Airok Airport

Closest report is Bucholz Army Air Field, 108.2 nm (200.4 km) NW.

2024/05/25 01:00 (retrieved 15 minutes ago)

PKWA 250100Z AUTO 07007KT 10SM SCT019 30/25 A2986 RMK AO2 T02960252

Closest aviation forecast (TAF) to Ailinglaplap Airok Airport

Forecast is more than 6 hours old.

Closest forecast is Andersen Air Force Base, 1,459.8 nm (2,703.5 km) WNW.

2024/05/24 18:12 (retrieved 7 hours ago)

TAF PGUA 241800Z 2418/2524 09010G15KT 9999 SCT010 BKN020 QNH2989INS TEMPO 2418/2502 6000 SHRA BKN012 TX30/2502Z TN26/2419Z